Capim Grosso, Brazil
Current Conditions -  °F | °C
As of 3:00 AM on Sunday 26 Oct 2014 (Local Time) from SBPL Reporting Station
Clear Clear  
Wind Chill: 79°   Ceiling: Unl
Heat Index: 81°   Visibility: 6mi
Dew Point: 64°   Wind: 8mph
Humidity: 61%   Direction: 140°SE
Pressure: 29.88"   Gusts: NA
Location:  11.37°S, 40.01°W
Report Text: SBPL 260600Z 14007KT CAVOK 26/18 Q1012
Loading
Personal Weather Stations






























Interactive Weather Map
Tropical Storm Tracking
New forecast layout! Learn more

10-Day Weather Forecast

Advertisements
Track Severe Weather on mobile